Mokihana — WNRD — position and weather

sailwx.info

Track history (hours):
 
Tides and Currents Weather Stations Pressure Air Temp Water Temp Dewpoint Dewpoint Depression Visibility Wind Speed Wind Dir Waves Ship Positions

Mokihana

Owner: MATSON NAVIGATION CO, Tacoma, WA. More information available from US FCC via Universal Licensing System and Coast Guard Vessel Documentation Center.

Last reported at 2017-Oct-21 21:13 UTC. Time now 2017-Oct-22 06:26 UTC.
Position N 32°39' W 119°40'.

Type: Ship. MMSI: 367196000.

Date/timePositionNaut miles runAvg speedWind from/ knotsBaromVisibWave heightAir tempDewpointWater temp
2017-Oct-21 21:13N 32°39' W 119°40'417.3
2017-Oct-21 20:59N 32°41' W 119°36'817.4
2017-Oct-21 20:30N 32°45' W 119°27'917.0
2017-Oct-21 20:00N 32°49' W 119°18'714.1
2017-Oct-21 19:30N 32°53' W 119°11'713.8
2017-Oct-21 19:01N 32°56' W 119°04'714.7
2017-Oct-21 18:30N 33°03' W 118°59'915.0
2017-Oct-21 17:52N 33°11' W 118°53'512.9
2017-Oct-21 17:30N 33°15' W 118°50'510.9
2017-Oct-21 17:00N 33°19' W 118°47'510.8
2017-Oct-21 16:30N 33°24' W 118°43'511.0
2017-Oct-21 16:00N 33°28' W 118°40'510.4
2017-Oct-21 15:29N 33°32' W 118°34'611.8
2017-Oct-21 14:59N 33°33' W 118°27'1410.6
2017-Oct-21 13:39N 33°39' W 118°12'3 9.5
2017-Oct-21 13:22N 33°42' W 118°11'3 7.4
2017-Oct-21 13:00N 33°44' W 118°12'2 0.1
2017-Oct-20 19:21N 33°46' W 118°13'0 0.0
2017-Oct-20 18:33N 33°46' W 118°13'0 0.0
2017-Oct-20 18:03N 33°46' W 118°13'0 0.0
2017-Oct-20 17:57N 33°46' W 118°13'0 0.0
2017-Oct-20 17:27N 33°46' W 118°13'0 0.0
2017-Oct-19 17:09N 33°46' W 118°13'0 0.0
2017-Oct-19 03:24N 33°46' W 118°13'0 0.0
2017-Oct-19 02:54N 33°46' W 118°13'0 0.0
2017-Oct-19 02:24N 33°46' W 118°13'0 0.0
2017-Oct-19 02:00N 33°46' W 118°13'0 0.0
2017-Oct-19 01:23N 33°46' W 118°13'0 0.0
2017-Oct-19 01:00N 33°46' W 118°13'0 0.0
2017-Oct-19 00:30N 33°46' W 118°13'0 0.0
2017-Oct-19 00:00N 33°46' W 118°13'1 1.3
2017-Oct-18 23:30N 33°45' W 118°13'4 7.0
2017-Oct-18 23:01N 33°43' W 118°11'5 9.3
2017-Oct-18 22:31N 33°38' W 118°13'611.5
2017-Oct-18 22:00N 33°36' W 118°19'510.6
2017-Oct-18 21:30N 33°34' W 118°25'611.5
2017-Oct-18 21:00N 33°32' W 118°32'511.0
2017-Oct-18 20:31N 33°30' W 118°38'510.8
2017-Oct-18 20:00N 33°26' W 118°42'511.0
2017-Oct-18 19:30N 33°21' W 118°45'610.8
2017-Oct-18 18:59N 33°16' W 118°49'612.0
2017-Oct-18 18:30N 33°11' W 118°53'817.4
2017-Oct-18 18:01N 33°04' W 118°58'918.1
2017-Oct-18 17:30N 32°57' W 119°04'917.2
2017-Oct-18 17:00N 32°52' W 119°12'815.1
2017-Oct-18 16:30N 32°48' W 119°20'714.9
2017-Oct-18 16:01N 32°45' W 119°28'917.6
2017-Oct-18 15:30N 32°40' W 119°37'3221.3
2017-Oct-18 14:01N 32°28' W 120°12'1122.5
2017-Oct-18 13:31N 32°26' W 120°25'1122.7
2017-Oct-18 13:01N 32°24' W 120°39'1222.8
2017-Oct-18 12:30N 32°22' W 120°52'1122.4
2017-Oct-18 12:01N 32°20' W 121°05'1122.3
2017-Oct-18 11:31N 32°18' W 121°18'1122.2
2017-Oct-18 11:01N 32°16' W 121°31'1122.0
2017-Oct-18 10:29N 32°14' W 121°44'1021.7
2017-Oct-18 10:00N 32°12' W 121°56'1121.6
2017-Oct-18 09:31N 32°10' W 122°09'1121.4
2017-Oct-18 09:00N 32°08' W 122°21'1121.5
2017-Oct-18 08:31N 32°06' W 122°34'1121.7
2017-Oct-18 08:00N 32°04' W 122°47'1121.7
2017-Oct-18 07:30N 32°02' W 122°59'1121.6
2017-Oct-18 07:01N 32°01' W 123°11'1121.4
2017-Oct-18 06:31N 31°59' W 123°24'1121.6
2017-Oct-18 06:00N 31°57' W 123°36'11803.7
2017-Oct-18 06:00N 31°54' W 123°24'2143.2 360 / 61017.2 18.014.618.0
2017-Oct-18 05:31N 31°55' W 123°49'1121.5
2017-Oct-18 05:01N 31°53' W 124°01'1221.8
2017-Oct-18 04:27N 31°50' W 124°15'22821.8
2017-Oct-17 18:00N 31°00' W 128°36'25221.0 110 / 171019.6 17.017.018.9
2017-Oct-17 06:00N 29°54' W 133°18'13021.7 110 / 181017.3 20.014.921.0
2017-Oct-17 00:00N 29°18' W 135°42'13823.0 070 / 121016.910.8 20.014.921.0
2017-Oct-16 18:00N 28°36' W 138°12'88221.0 110 / 161017.0 21.012.221.0
2017-Oct-15 00:00N 23°12' W 153°24'   110 / 301014.610.8 27.820.326.1
Track history (hours):
 
Tides and Currents Weather Stations Pressure Air Temp Water Temp Dewpoint Dewpoint Depression Visibility Wind Speed Wind Dir Waves Ship Positions

Mokihana

Owner: MATSON NAVIGATION CO, Tacoma, WA. More information available from US FCC via Universal Licensing System and Coast Guard Vessel Documentation Center.

Last reported at 2017-Oct-21 21:13 UTC. Time now 2017-Oct-22 06:26 UTC.
Position N 32°39' W 119°40'.

Type: Ship. MMSI: 367196000.

Date/timePositionNaut miles runAvg speedWind from/ knotsBaromVisibWave heightAir tempDewpointWater temp
2017-Oct-21 21:13N 32°39' W 119°40'417.3
2017-Oct-21 20:59N 32°41' W 119°36'817.4
2017-Oct-21 20:30N 32°45' W 119°27'917.0
2017-Oct-21 20:00N 32°49' W 119°18'714.1
2017-Oct-21 19:30N 32°53' W 119°11'713.8
2017-Oct-21 19:01N 32°56' W 119°04'714.7
2017-Oct-21 18:30N 33°03' W 118°59'915.0
2017-Oct-21 17:52N 33°11' W 118°53'512.9
2017-Oct-21 17:30N 33°15' W 118°50'510.9
2017-Oct-21 17:00N 33°19' W 118°47'510.8
2017-Oct-21 16:30N 33°24' W 118°43'511.0
2017-Oct-21 16:00N 33°28' W 118°40'510.4
2017-Oct-21 15:29N 33°32' W 118°34'611.8
2017-Oct-21 14:59N 33°33' W 118°27'1410.6
2017-Oct-21 13:39N 33°39' W 118°12'3 9.5
2017-Oct-21 13:22N 33°42' W 118°11'3 7.4
2017-Oct-21 13:00N 33°44' W 118°12'2 0.1
2017-Oct-20 19:21N 33°46' W 118°13'0 0.0
2017-Oct-20 18:33N 33°46' W 118°13'0 0.0
2017-Oct-20 18:03N 33°46' W 118°13'0 0.0
2017-Oct-20 17:57N 33°46' W 118°13'0 0.0
2017-Oct-20 17:27N 33°46' W 118°13'0 0.0
2017-Oct-19 17:09N 33°46' W 118°13'0 0.0
2017-Oct-19 03:24N 33°46' W 118°13'0 0.0
2017-Oct-19 02:54N 33°46' W 118°13'0 0.0
2017-Oct-19 02:24N 33°46' W 118°13'0 0.0
2017-Oct-19 02:00N 33°46' W 118°13'0 0.0
2017-Oct-19 01:23N 33°46' W 118°13'0 0.0
2017-Oct-19 01:00N 33°46' W 118°13'0 0.0
2017-Oct-19 00:30N 33°46' W 118°13'0 0.0
2017-Oct-19 00:00N 33°46' W 118°13'1 1.3
2017-Oct-18 23:30N 33°45' W 118°13'4 7.0
2017-Oct-18 23:01N 33°43' W 118°11'5 9.3
2017-Oct-18 22:31N 33°38' W 118°13'611.5
2017-Oct-18 22:00N 33°36' W 118°19'510.6
2017-Oct-18 21:30N 33°34' W 118°25'611.5
2017-Oct-18 21:00N 33°32' W 118°32'511.0
2017-Oct-18 20:31N 33°30' W 118°38'510.8
2017-Oct-18 20:00N 33°26' W 118°42'511.0
2017-Oct-18 19:30N 33°21' W 118°45'610.8
2017-Oct-18 18:59N 33°16' W 118°49'612.0
2017-Oct-18 18:30N 33°11' W 118°53'817.4
2017-Oct-18 18:01N 33°04' W 118°58'918.1
2017-Oct-18 17:30N 32°57' W 119°04'917.2
2017-Oct-18 17:00N 32°52' W 119°12'815.1
2017-Oct-18 16:30N 32°48' W 119°20'714.9
2017-Oct-18 16:01N 32°45' W 119°28'917.6
2017-Oct-18 15:30N 32°40' W 119°37'3221.3
2017-Oct-18 14:01N 32°28' W 120°12'1122.5
2017-Oct-18 13:31N 32°26' W 120°25'1122.7
2017-Oct-18 13:01N 32°24' W 120°39'1222.8
2017-Oct-18 12:30N 32°22' W 120°52'1122.4
2017-Oct-18 12:01N 32°20' W 121°05'1122.3
2017-Oct-18 11:31N 32°18' W 121°18'1122.2
2017-Oct-18 11:01N 32°16' W 121°31'1122.0
2017-Oct-18 10:29N 32°14' W 121°44'1021.7
2017-Oct-18 10:00N 32°12' W 121°56'1121.6
2017-Oct-18 09:31N 32°10' W 122°09'1121.4
2017-Oct-18 09:00N 32°08' W 122°21'1121.5
2017-Oct-18 08:31N 32°06' W 122°34'1121.7
2017-Oct-18 08:00N 32°04' W 122°47'1121.7
2017-Oct-18 07:30N 32°02' W 122°59'1121.6
2017-Oct-18 07:01N 32°01' W 123°11'1121.4
2017-Oct-18 06:31N 31°59' W 123°24'1121.6
2017-Oct-18 06:00N 31°57' W 123°36'11803.7
2017-Oct-18 06:00N 31°54' W 123°24'2143.2 360 / 61017.2 18.014.618.0
2017-Oct-18 05:31N 31°55' W 123°49'1121.5
2017-Oct-18 05:01N 31°53' W 124°01'1221.8
2017-Oct-18 04:27N 31°50' W 124°15'22821.8
2017-Oct-17 18:00N 31°00' W 128°36'25221.0 110 / 171019.6 17.017.018.9
2017-Oct-17 06:00N 29°54' W 133°18'13021.7 110 / 181017.3 20.014.921.0
2017-Oct-17 00:00N 29°18' W 135°42'13823.0 070 / 121016.910.8 20.014.921.0
2017-Oct-16 18:00N 28°36' W 138°12'88221.0 110 / 161017.0 21.012.221.0
2017-Oct-15 00:00N 23°12' W 153°24'   110 / 301014.610.8 27.820.326.1

Dump ship's entire track history